createdAt,value
2018-09-09T00:00:01.891Z,101709.19
2018-09-09T00:02:31.465Z,101706.66
2018-09-09T00:05:00.701Z,101708.86
2018-09-09T00:07:29.967Z,101706.24
2018-09-09T00:09:59.133Z,101706.38
2018-09-09T00:12:28.126Z,101712.41
2018-09-09T00:14:57.344Z,101717.13
2018-09-09T00:17:26.405Z,101711.88
2018-09-09T00:19:55.458Z,101713.76
2018-09-09T00:22:24.446Z,101719.93
2018-09-09T00:24:53.840Z,101728.03
2018-09-09T00:27:22.996Z,101722.89
2018-09-09T00:29:52.029Z,101729.02
2018-09-09T00:32:21.009Z,101728.57
2018-09-09T00:34:50.433Z,101732.52
2018-09-09T00:37:19.523Z,101727.31
2018-09-09T00:39:48.668Z,101719.39
2018-09-09T00:42:17.669Z,101717.30
2018-09-09T00:44:46.853Z,101711.57
2018-09-09T00:47:16.145Z,101711.20
2018-09-09T00:49:50.272Z,101706.69
2018-09-09T00:52:24.530Z,101705.95
2018-09-09T00:54:53.531Z,101704.73
2018-09-09T00:57:22.533Z,101699.94
2018-09-09T00:59:51.554Z,101698.73
2018-09-09T01:02:21.214Z,101696.52
2018-09-09T01:04:50.240Z,101696.09
2018-09-09T01:07:19.263Z,101700.86
2018-09-09T01:09:48.292Z,101699.52
2018-09-09T01:12:17.392Z,101689.27
2018-09-09T01:14:46.375Z,101690.01
2018-09-09T01:17:15.393Z,101685.16
2018-09-09T01:19:44.397Z,101683.00
2018-09-09T01:22:13.629Z,101688.64
2018-09-09T01:24:42.988Z,101689.83
2018-09-09T01:27:12.015Z,101702.44
2018-09-09T01:29:48.010Z,101701.64
2018-09-09T01:32:17.562Z,101703.73
2018-09-09T01:34:46.951Z,101703.81
2018-09-09T01:37:16.230Z,101698.59
2018-09-09T01:39:45.243Z,101696.42
2018-09-09T01:42:14.477Z,101693.80
2018-09-09T01:44:43.713Z,101699.85
2018-09-09T01:47:12.719Z,101695.30
2018-09-09T01:49:41.747Z,101701.33
2018-09-09T01:52:11.002Z,101702.98
2018-09-09T01:54:39.987Z,101703.84
2018-09-09T01:57:09.607Z,101707.30
2018-09-09T01:59:38.863Z,101703.39
2018-09-09T02:02:08.118Z,101709.50
2018-09-09T02:04:37.117Z,101719.97
2018-09-09T02:07:06.412Z,101719.47
2018-09-09T02:09:35.745Z,101722.48
2018-09-09T02:12:04.741Z,101719.09
2018-09-09T02:14:33.742Z,101722.08
2018-09-09T02:17:03.009Z,101717.73
2018-09-09T02:19:32.254Z,101715.58
2018-09-09T02:22:01.523Z,101707.75
2018-09-09T02:24:30.551Z,101706.47
2018-09-09T02:26:59.562Z,101706.00
2018-09-09T02:29:28.797Z,101713.41
2018-09-09T02:31:57.825Z,101703.00
2018-09-09T02:34:26.823Z,101707.33
2018-09-09T02:36:55.880Z,101699.73
2018-09-09T02:39:25.464Z,101707.36
2018-09-09T02:41:54.460Z,101705.64
2018-09-09T02:44:23.474Z,101701.73
2018-09-09T02:46:52.754Z,101696.52
2018-09-09T02:49:22.261Z,101697.37
2018-09-09T02:51:51.317Z,101696.96
2018-09-09T02:54:20.316Z,101699.14
2018-09-09T02:56:49.623Z,101704.35
2018-09-09T02:59:18.687Z,101699.63
2018-09-09T03:01:47.713Z,101691.81
2018-09-09T03:04:17.054Z,101692.27
2018-09-09T03:06:46.083Z,101690.49
2018-09-09T03:09:15.076Z,101689.59
2018-09-09T03:11:44.098Z,101684.05
2018-09-09T03:14:13.107Z,101685.73
2018-09-09T03:16:42.189Z,101700.00
2018-09-09T03:19:11.188Z,101694.28
2018-09-09T03:21:40.966Z,101693.48
2018-09-09T03:24:10.003Z,101686.89
2018-09-09T03:26:39.026Z,101685.61
2018-09-09T03:29:08.029Z,101689.16
2018-09-09T03:31:37.267Z,101691.35
2018-09-09T03:34:06.540Z,101687.88
2018-09-09T03:36:35.554Z,101688.30
2018-09-09T03:39:05.669Z,101691.33
2018-09-09T03:41:34.658Z,101696.59
2018-09-09T03:44:03.810Z,101696.98
2018-09-09T03:46:32.951Z,101693.21
2018-09-09T03:49:02.216Z,101690.47
2018-09-09T03:51:31.507Z,101698.70
2018-09-09T03:54:00.523Z,101697.00
2018-09-09T03:56:29.860Z,101685.67
2018-09-09T03:58:59.051Z,101685.77
2018-09-09T04:01:28.044Z,101691.37
2018-09-09T04:03:57.176Z,101689.18
2018-09-09T04:06:26.554Z,101684.98
2018-09-09T04:08:56.250Z,101684.48
2018-09-09T04:11:25.512Z,101687.02
2018-09-09T04:13:54.636Z,101689.16
2018-09-09T04:16:23.623Z,101687.90
2018-09-09T04:18:52.655Z,101684.05
2018-09-09T04:21:21.676Z,101684.92
2018-09-09T04:23:50.708Z,101692.69
2018-09-09T04:26:19.711Z,101699.61
2018-09-09T04:28:49.007Z,101699.63
2018-09-09T04:31:18.057Z,101696.67
2018-09-09T04:33:47.124Z,101702.27
2018-09-09T04:36:16.121Z,101700.98
2018-09-09T04:38:45.145Z,101703.21
2018-09-09T04:41:14.155Z,101710.54
2018-09-09T04:43:49.926Z,101709.69
2018-09-09T04:46:18.977Z,101714.48
2018-09-09T04:48:47.999Z,101712.80
2018-09-09T04:51:17.011Z,101714.92
2018-09-09T04:53:46.123Z,101717.56
2018-09-09T04:56:15.114Z,101724.98
2018-09-09T04:58:44.156Z,101724.91
2018-09-09T05:01:13.432Z,101721.00
2018-09-09T05:03:42.464Z,101726.16
2018-09-09T05:06:11.820Z,101729.28
2018-09-09T05:08:40.821Z,101733.59
2018-09-09T05:11:09.827Z,101723.14
2018-09-09T05:13:39.127Z,101720.93
2018-09-09T05:16:08.134Z,101720.49
2018-09-09T05:18:37.138Z,101715.30
2018-09-09T05:21:06.483Z,101711.71
2018-09-09T05:23:35.830Z,101712.61
2018-09-09T05:26:04.823Z,101717.38
2018-09-09T05:28:34.107Z,101718.67
2018-09-09T05:31:03.122Z,101723.00
2018-09-09T05:33:32.127Z,101727.79
2018-09-09T05:36:01.479Z,101723.00
2018-09-09T05:38:30.530Z,101722.56
2018-09-09T05:40:59.535Z,101727.36
2018-09-09T05:43:28.549Z,101736.84
2018-09-09T05:45:57.553Z,101728.18
2018-09-09T05:48:26.571Z,101729.95
2018-09-09T05:50:55.574Z,101735.53
2018-09-09T05:53:25.507Z,101736.91
2018-09-09T05:55:54.756Z,101734.72
2018-09-09T05:58:24.229Z,101736.83
2018-09-09T06:00:53.263Z,101742.42
2018-09-09T06:03:22.255Z,101738.50
2018-09-09T06:05:51.257Z,101735.01
2018-09-09T06:08:20.303Z,101734.19
2018-09-09T06:10:55.180Z,101734.48
2018-09-09T06:13:26.215Z,101733.16
2018-09-09T06:15:55.518Z,101727.76
2018-09-09T06:18:24.619Z,101730.22
2018-09-09T06:20:53.656Z,101731.97
2018-09-09T06:23:22.680Z,101736.71
2018-09-09T06:25:51.709Z,101730.25
2018-09-09T06:28:20.782Z,101734.58
2018-09-09T06:30:49.968Z,101736.84
2018-09-09T06:33:19.303Z,101729.28
2018-09-09T06:35:48.387Z,101737.88
2018-09-09T06:38:17.922Z,101734.78
2018-09-09T06:40:46.976Z,101735.12
2018-09-09T06:43:15.990Z,101735.30
2018-09-09T06:45:44.995Z,101733.92
2018-09-09T06:48:14.043Z,101737.12
2018-09-09T06:50:43.402Z,101739.86
2018-09-09T06:53:12.430Z,101744.06
2018-09-09T06:55:41.722Z,101747.36
2018-09-09T06:58:10.784Z,101750.80
2018-09-09T07:00:39.922Z,101750.42
2018-09-09T07:03:08.927Z,101749.08
2018-09-09T07:05:38.167Z,101744.34
2018-09-09T07:08:10.656Z,101745.68
2018-09-09T07:10:41.276Z,101742.84
2018-09-09T07:13:10.878Z,101748.36
2018-09-09T07:15:44.906Z,101749.71
2018-09-09T07:18:15.156Z,101752.23
2018-09-09T07:20:44.467Z,101754.14
2018-09-09T07:23:14.670Z,101753.09
2018-09-09T07:25:43.751Z,101749.06
2018-09-09T07:28:12.742Z,101759.37
2018-09-09T07:30:42.126Z,101757.17
2018-09-09T07:33:13.472Z,101759.33
2018-09-09T07:35:43.605Z,101765.13
2018-09-09T07:38:14.199Z,101770.12
2018-09-09T07:40:44.399Z,101773.45
2018-09-09T07:43:14.750Z,101772.27
2018-09-09T07:45:44.419Z,101771.16
2018-09-09T07:48:14.673Z,101771.66
2018-09-09T07:50:44.946Z,101769.91
2018-09-09T07:53:14.447Z,101772.03
2018-09-09T07:55:43.884Z,101764.27
2018-09-09T07:58:14.588Z,101766.23
2018-09-09T08:00:44.098Z,101758.45
2018-09-09T08:03:13.114Z,101763.98
2018-09-09T08:05:42.164Z,101766.78
2018-09-09T08:08:11.194Z,101761.53
2018-09-09T08:10:40.227Z,101769.06
2018-09-09T08:13:09.284Z,101766.69
2018-09-09T08:15:38.295Z,101762.70
2018-09-09T08:18:07.607Z,101765.30
2018-09-09T08:20:37.003Z,101765.58
2018-09-09T08:23:06.238Z,101766.71
2018-09-09T08:25:35.294Z,101762.59
2018-09-09T08:28:04.798Z,101766.16
2018-09-09T08:30:33.887Z,101765.14
2018-09-09T08:33:02.894Z,101761.92
2018-09-09T08:35:32.019Z,101764.47
2018-09-09T08:38:01.336Z,101765.78
2018-09-09T08:40:30.548Z,101768.39
2018-09-09T08:42:59.567Z,101763.11
2018-09-09T08:45:28.716Z,101761.52
2018-09-09T08:47:58.049Z,101754.80
2018-09-09T08:50:27.500Z,101748.59
2018-09-09T08:52:57.570Z,101755.59
2018-09-09T08:55:27.036Z,101754.58
2018-09-09T08:57:57.354Z,101755.27
2018-09-09T09:00:26.475Z,101754.45
2018-09-09T09:02:57.035Z,101757.31
2018-09-09T09:05:26.403Z,101756.45
2018-09-09T09:07:55.865Z,101751.42
2018-09-09T09:10:25.009Z,101751.05
2018-09-09T09:12:54.016Z,101744.55
2018-09-09T09:15:23.618Z,101749.73
2018-09-09T09:17:52.631Z,101742.00
2018-09-09T09:20:21.797Z,101742.84
2018-09-09T09:22:51.091Z,101739.94
2018-09-09T09:25:20.164Z,101733.20
2018-09-09T09:27:49.166Z,101729.69
2018-09-09T09:30:18.310Z,101732.91
2018-09-09T09:32:48.187Z,101730.09
2018-09-09T09:35:17.570Z,101729.58
2018-09-09T09:37:46.798Z,101731.67
2018-09-09T09:40:16.170Z,101724.95
2018-09-09T09:42:45.363Z,101730.84
2018-09-09T09:45:15.266Z,101729.41
2018-09-09T09:47:44.958Z,101730.38
2018-09-09T09:50:15.092Z,101724.75
2018-09-09T09:52:46.857Z,101729.22
2018-09-09T09:55:16.426Z,101722.09
2018-09-09T09:57:45.803Z,101720.39
2018-09-09T10:00:20.518Z,101716.35
2018-09-09T10:02:49.763Z,101711.59
2018-09-09T10:05:18.871Z,101711.52
2018-09-09T10:07:48.906Z,101715.31
2018-09-09T10:10:18.282Z,101707.72
2018-09-09T10:12:47.527Z,101711.20
2018-09-09T10:15:17.091Z,101705.70
2018-09-09T10:17:46.190Z,101713.53
2018-09-09T10:20:15.344Z,101709.87
2018-09-09T10:22:44.429Z,101707.27
2018-09-09T10:25:14.218Z,101704.66
2018-09-09T10:27:43.600Z,101701.21
2018-09-09T10:30:12.783Z,101711.50
2018-09-09T10:32:42.018Z,101709.83
2018-09-09T10:35:11.162Z,101701.89
2018-09-09T10:37:40.325Z,101702.58
2018-09-09T10:40:09.443Z,101692.03
2018-09-09T10:42:38.600Z,101688.16
2018-09-09T10:45:07.756Z,101686.59
2018-09-09T10:47:36.875Z,101680.52
2018-09-09T10:50:06.975Z,101690.11
2018-09-09T10:52:36.427Z,101687.45
2018-09-09T10:55:05.835Z,101689.23
2018-09-09T10:57:35.090Z,101686.78
2018-09-09T11:00:04.495Z,101683.96
2018-09-09T11:02:33.791Z,101685.77
2018-09-09T11:05:03.300Z,101683.27
2018-09-09T11:07:32.783Z,101686.95
2018-09-09T11:10:02.067Z,101680.97
2018-09-09T11:12:31.975Z,101675.50
2018-09-09T11:15:02.257Z,101672.08
2018-09-09T11:17:32.103Z,101685.61
2018-09-09T11:20:01.103Z,101674.86
2018-09-09T11:22:30.615Z,101676.03
2018-09-09T11:24:59.598Z,101673.14
2018-09-09T11:27:28.828Z,101668.28
2018-09-09T11:29:57.822Z,101674.24
2018-09-09T11:32:26.834Z,101676.97
2018-09-09T11:34:55.920Z,101681.53
2018-09-09T11:37:24.975Z,101684.87
2018-09-09T11:39:54.331Z,101680.22
2018-09-09T11:42:23.315Z,101678.27
2018-09-09T11:44:52.378Z,101675.41
2018-09-09T11:47:21.719Z,101670.34
2018-09-09T11:49:50.721Z,101675.39
2018-09-09T11:52:19.882Z,101671.66
2018-09-09T11:54:49.063Z,101662.98
2018-09-09T11:57:18.147Z,101666.17
2018-09-09T11:59:47.170Z,101668.72
2018-09-09T12:02:16.407Z,101668.28
2018-09-09T12:04:45.411Z,101666.72
2018-09-09T12:07:14.428Z,101672.77
2018-09-09T12:09:43.433Z,101672.31
2018-09-09T12:12:12.443Z,101661.05
2018-09-09T12:14:41.478Z,101670.41
2018-09-09T12:17:10.579Z,101672.95
2018-09-09T12:19:39.584Z,101670.38
2018-09-09T12:22:08.912Z,101675.95
2018-09-09T12:24:38.021Z,101669.17
2018-09-09T12:27:07.203Z,101674.09
2018-09-09T12:29:36.250Z,101670.49
2018-09-09T12:32:05.380Z,101668.49
2018-09-09T12:34:34.422Z,101663.61
2018-09-09T12:37:03.469Z,101666.62
2018-09-09T12:39:32.476Z,101665.20
2018-09-09T12:42:01.715Z,101662.66
2018-09-09T12:44:36.049Z,101666.73
2018-09-09T12:47:10.547Z,101667.34
2018-09-09T12:49:39.527Z,101665.77
2018-09-09T12:52:08.812Z,101662.59
2018-09-09T12:54:37.829Z,101662.80
2018-09-09T12:57:06.842Z,101658.55
2018-09-09T12:59:36.219Z,101661.41
2018-09-09T13:02:05.300Z,101661.70
2018-09-09T13:04:34.468Z,101657.93
2018-09-09T13:07:03.493Z,101658.72
2018-09-09T13:09:32.594Z,101657.97
2018-09-09T13:12:01.846Z,101658.83
2018-09-09T13:14:30.857Z,101655.22
2018-09-09T13:17:00.145Z,101656.14
2018-09-09T13:19:29.187Z,101651.63
2018-09-09T13:21:58.523Z,101648.52
2018-09-09T13:24:28.104Z,101644.44
2018-09-09T13:26:57.153Z,101643.31
2018-09-09T13:29:26.172Z,101642.87
2018-09-09T13:31:55.203Z,101645.30
2018-09-09T13:34:24.319Z,101644.95
2018-09-09T13:36:53.703Z,101646.01
2018-09-09T13:39:22.696Z,101645.03
2018-09-09T13:41:51.699Z,101638.09
2018-09-09T13:44:20.704Z,101648.02
2018-09-09T13:46:50.007Z,101635.50
2018-09-09T13:49:19.056Z,101638.56
2018-09-09T13:51:48.087Z,101634.10
2018-09-09T13:54:17.368Z,101633.63
2018-09-09T13:56:46.370Z,101636.03
2018-09-09T13:59:18.563Z,101632.66
2018-09-09T14:01:47.750Z,101639.53
2018-09-09T14:04:17.064Z,101640.37
2018-09-09T14:06:46.143Z,101645.29
2018-09-09T14:09:15.144Z,101640.61
2018-09-09T14:11:44.151Z,101638.56
2018-09-09T14:14:13.194Z,101638.83
2018-09-09T14:16:42.227Z,101636.34
2018-09-09T14:19:11.237Z,101634.95
2018-09-09T14:21:40.498Z,101631.66
2018-09-09T14:24:09.541Z,101632.44
2018-09-09T14:26:38.551Z,101638.41
2018-09-09T14:29:07.583Z,101639.45
2018-09-09T14:31:36.589Z,101640.50
2018-09-09T14:34:05.897Z,101634.22
2018-09-09T14:36:35.487Z,101637.28
2018-09-09T14:39:05.911Z,101638.80
2018-09-09T14:41:34.921Z,101639.30
2018-09-09T14:44:04.126Z,101641.70
2018-09-09T14:46:33.131Z,101638.05
2018-09-09T14:49:02.146Z,101634.64
2018-09-09T14:51:31.236Z,101638.06
2018-09-09T14:54:00.259Z,101633.86
2018-09-09T14:56:29.633Z,101633.59
2018-09-09T14:58:58.756Z,101629.36
2018-09-09T15:01:27.852Z,101632.91
2018-09-09T15:03:57.171Z,101630.06
2018-09-09T15:06:26.722Z,101632.47
2018-09-09T15:08:55.767Z,101628.25
2018-09-09T15:11:24.823Z,101637.13
2018-09-09T15:13:53.843Z,101632.00
2018-09-09T15:16:23.070Z,101633.25
2018-09-09T15:18:52.636Z,101634.98
2018-09-09T15:21:22.357Z,101636.81
2018-09-09T15:23:51.372Z,101639.61
2018-09-09T15:26:20.446Z,101631.15
2018-09-09T15:28:49.521Z,101629.64
2018-09-09T15:31:18.523Z,101627.35
2018-09-09T15:33:47.552Z,101629.37
2018-09-09T15:36:16.782Z,101631.47
2018-09-09T15:38:45.926Z,101627.80
2018-09-09T15:41:14.931Z,101628.48
2018-09-09T15:43:44.247Z,101623.77
2018-09-09T15:46:13.319Z,101619.55
2018-09-09T15:48:42.329Z,101628.16
2018-09-09T15:51:11.331Z,101630.96
2018-09-09T15:53:40.686Z,101636.23
2018-09-09T15:56:09.967Z,101635.54
2018-09-09T15:58:38.985Z,101631.89
2018-09-09T16:01:08.019Z,101632.12
2018-09-09T16:03:37.024Z,101632.51
2018-09-09T16:06:06.372Z,101632.66
2018-09-09T16:08:35.438Z,101637.90
2018-09-09T16:11:04.582Z,101632.90
2018-09-09T16:13:33.605Z,101632.67
2018-09-09T16:16:02.894Z,101634.45
2018-09-09T16:18:31.879Z,101636.78
2018-09-09T16:21:00.991Z,101634.68
2018-09-09T16:23:30.277Z,101634.22
2018-09-09T16:25:59.304Z,101635.03
2018-09-09T16:28:28.385Z,101634.25
2018-09-09T16:30:57.407Z,101642.87
2018-09-09T16:33:26.822Z,101640.81
2018-09-09T16:35:56.091Z,101640.45
2018-09-09T16:38:25.692Z,101636.81
2018-09-09T16:40:54.771Z,101635.14
2018-09-09T16:43:23.798Z,101642.02
2018-09-09T16:45:52.853Z,101641.48
2018-09-09T16:48:22.569Z,101646.50
2018-09-09T16:50:51.734Z,101647.28
2018-09-09T16:53:21.362Z,101648.77
2018-09-09T16:55:50.387Z,101644.59
2018-09-09T16:58:19.671Z,101646.68
2018-09-09T17:00:48.710Z,101646.16
2018-09-09T17:03:21.071Z,101648.14
2018-09-09T17:05:50.088Z,101645.66
2018-09-09T17:08:19.697Z,101650.37
2018-09-09T17:10:48.972Z,101654.56
2018-09-09T17:13:18.747Z,101655.35
2018-09-09T17:15:48.147Z,101654.04
2018-09-09T17:18:17.482Z,101658.67
2018-09-09T17:20:46.480Z,101660.64
2018-09-09T17:23:15.825Z,101661.35
2018-09-09T17:25:44.946Z,101665.73
2018-09-09T17:28:20.429Z,101663.90
2018-09-09T17:30:49.938Z,101671.32
2018-09-09T17:33:18.995Z,101672.45
2018-09-09T17:35:48.260Z,101670.17
2018-09-09T17:38:17.609Z,101673.56
2018-09-09T17:40:46.664Z,101675.20
2018-09-09T17:43:15.968Z,101679.74
2018-09-09T17:45:45.267Z,101686.32
2018-09-09T17:48:14.283Z,101689.06
2018-09-09T17:50:43.389Z,101692.13
2018-09-09T17:53:12.747Z,101692.41
2018-09-09T17:55:41.773Z,101700.88
2018-09-09T17:58:10.778Z,101702.52
2018-09-09T18:00:40.018Z,101700.80
2018-09-09T18:03:09.067Z,101705.64
2018-09-09T18:05:38.484Z,101710.16
2018-09-09T18:08:07.493Z,101703.03
2018-09-09T18:10:36.552Z,101709.41
2018-09-09T18:13:06.007Z,101709.73
2018-09-09T18:15:35.290Z,101712.89
2018-09-09T18:18:04.371Z,101715.64
2018-09-09T18:20:33.489Z,101715.23
2018-09-09T18:23:02.519Z,101722.84
2018-09-09T18:25:31.544Z,101715.83
2018-09-09T18:28:00.574Z,101715.48
2018-09-09T18:30:29.604Z,101720.31
2018-09-09T18:32:58.902Z,101720.83
2018-09-09T18:35:27.919Z,101726.10
2018-09-09T18:37:58.098Z,101722.32
2018-09-09T18:40:27.132Z,101723.72
2018-09-09T18:42:56.159Z,101719.52
2018-09-09T18:45:25.511Z,101723.81
2018-09-09T18:47:54.846Z,101722.45
2018-09-09T18:50:23.848Z,101721.29
2018-09-09T18:52:52.923Z,101723.14
2018-09-09T18:55:22.137Z,101720.67
2018-09-09T18:57:51.411Z,101723.55
2018-09-09T19:00:20.429Z,101717.06
2018-09-09T19:02:49.744Z,101718.97
2018-09-09T19:05:18.790Z,101724.72
2018-09-09T19:07:47.907Z,101719.39
2018-09-09T19:10:16.921Z,101712.95
2018-09-09T19:12:45.935Z,101713.34
2018-09-09T19:15:14.961Z,101708.50
2018-09-09T19:17:44.097Z,101709.13
2018-09-09T19:20:13.131Z,101707.59
2018-09-09T19:22:42.171Z,101706.98
2018-09-09T19:25:11.262Z,101711.66
2018-09-09T19:27:40.275Z,101707.73
2018-09-09T19:30:09.312Z,101715.16
2018-09-09T19:32:38.310Z,101715.69
2018-09-09T19:35:07.308Z,101716.75
2018-09-09T19:37:36.356Z,101717.76
2018-09-09T19:40:05.807Z,101720.95
2018-09-09T19:42:36.717Z,101719.86
2018-09-09T19:45:06.958Z,101718.94
2018-09-09T19:47:36.295Z,101718.23
2018-09-09T19:50:06.218Z,101719.16
2018-09-09T19:52:41.979Z,101719.08
2018-09-09T19:55:11.016Z,101718.75
2018-09-09T19:57:40.119Z,101717.38
2018-09-09T20:00:11.458Z,101717.97
2018-09-09T20:02:40.477Z,101726.43
2018-09-09T20:05:09.589Z,101720.73
2018-09-09T20:07:38.596Z,101716.80
2018-09-09T20:10:07.911Z,101719.03
2018-09-09T20:12:37.163Z,101719.41
2018-09-09T20:15:06.259Z,101720.41
2018-09-09T20:17:35.287Z,101715.22
2018-09-09T20:20:04.359Z,101718.77
2018-09-09T20:22:33.647Z,101714.82
2018-09-09T20:25:02.655Z,101721.45
2018-09-09T20:27:32.088Z,101723.35
2018-09-09T20:30:01.196Z,101722.42
2018-09-09T20:32:30.257Z,101727.78
2018-09-09T20:34:59.523Z,101733.37
2018-09-09T20:37:28.510Z,101734.16
2018-09-09T20:39:57.547Z,101733.69
2018-09-09T20:42:26.919Z,101735.06
2018-09-09T20:44:56.147Z,101735.58
2018-09-09T20:47:25.352Z,101730.75
2018-09-09T20:49:54.415Z,101732.17
2018-09-09T20:52:23.423Z,101735.66
2018-09-09T20:54:52.622Z,101734.80
2018-09-09T20:57:21.615Z,101733.16
2018-09-09T20:59:50.614Z,101737.23
2018-09-09T21:02:19.602Z,101739.98
2018-09-09T21:04:48.989Z,101739.34
2018-09-09T21:07:18.190Z,101741.09
2018-09-09T21:09:47.220Z,101743.83
2018-09-09T21:12:16.491Z,101739.45
2018-09-09T21:14:45.490Z,101745.08
2018-09-09T21:17:14.496Z,101739.17
2018-09-09T21:19:43.791Z,101738.66
2018-09-09T21:22:13.125Z,101732.63
2018-09-09T21:24:42.442Z,101737.96
2018-09-09T21:27:11.635Z,101739.38
2018-09-09T21:29:41.070Z,101731.42
2018-09-09T21:32:10.290Z,101738.88
2018-09-09T21:34:39.787Z,101744.74
2018-09-09T21:37:09.021Z,101746.95
2018-09-09T21:39:38.077Z,101740.91
2018-09-09T21:42:07.091Z,101745.34
2018-09-09T21:44:36.324Z,101741.77
2018-09-09T21:47:05.847Z,101745.69
2018-09-09T21:49:34.991Z,101749.69
2018-09-09T21:52:03.974Z,101740.21
2018-09-09T21:54:33.302Z,101740.16
2018-09-09T21:57:02.718Z,101743.88
2018-09-09T21:59:31.931Z,101741.47
2018-09-09T22:02:07.246Z,101736.08
2018-09-09T22:04:36.666Z,101740.92
2018-09-09T22:07:10.209Z,101739.56
2018-09-09T22:09:40.044Z,101743.94
2018-09-09T22:12:10.012Z,101742.63
2018-09-09T22:14:40.010Z,101742.27
2018-09-09T22:17:10.211Z,101737.50
2018-09-09T22:19:40.088Z,101737.50
2018-09-09T22:22:10.969Z,101743.94
2018-09-09T22:24:40.744Z,101735.34
2018-09-09T22:27:10.198Z,101735.39
2018-09-09T22:29:39.906Z,101745.49
2018-09-09T22:32:08.906Z,101742.46
2018-09-09T22:34:38.897Z,101750.85
2018-09-09T22:37:08.739Z,101747.70
2018-09-09T22:39:37.843Z,101748.51
2018-09-09T22:42:06.901Z,101746.47
2018-09-09T22:44:35.934Z,101744.72
2018-09-09T22:47:04.921Z,101748.77
2018-09-09T22:49:34.073Z,101753.14
2018-09-09T22:52:03.051Z,101761.09
2018-09-09T22:54:32.075Z,101759.87
2018-09-09T22:57:01.269Z,101750.61
2018-09-09T22:59:30.710Z,101759.23
2018-09-09T23:01:59.934Z,101755.87
2018-09-09T23:04:29.188Z,101756.33
2018-09-09T23:06:58.182Z,101752.77
2018-09-09T23:09:27.687Z,101749.86
2018-09-09T23:11:56.870Z,101754.60
2018-09-09T23:14:26.167Z,101756.02
2018-09-09T23:16:55.671Z,101747.44
2018-09-09T23:19:24.971Z,101747.44
2018-09-09T23:21:54.402Z,101742.20
2018-09-09T23:24:23.768Z,101750.88
2018-09-09T23:26:52.761Z,101745.75
2018-09-09T23:29:21.868Z,101743.66
2018-09-09T23:31:50.838Z,101748.87
2018-09-09T23:34:20.692Z,101745.82
2018-09-09T23:36:49.692Z,101740.62
2018-09-09T23:39:18.891Z,101738.81
2018-09-09T23:41:48.142Z,101743.66
2018-09-09T23:44:17.216Z,101739.83
2018-09-09T23:46:46.479Z,101737.57
2018-09-09T23:49:15.726Z,101740.28
2018-09-09T23:51:44.716Z,101740.66
2018-09-09T23:54:13.950Z,101739.39
2018-09-09T23:56:43.177Z,101736.36
2018-09-09T23:59:12.803Z,101735.95
